createdAt,value
2022-10-03T00:00:31.390Z,99777.16
2022-10-03T00:03:34.982Z,99785.00
2022-10-03T00:06:46.337Z,99775.94
2022-10-03T00:09:50.892Z,99775.84
2022-10-03T00:13:03.893Z,99776.72
2022-10-03T00:16:23.928Z,99786.88
2022-10-03T00:19:25.713Z,99789.56
2022-10-03T00:22:33.371Z,99785.50
2022-10-03T00:25:37.742Z,99787.59
2022-10-03T00:28:39.301Z,99778.00
2022-10-03T00:31:47.127Z,99781.78
2022-10-03T00:34:51.501Z,99776.41
2022-10-03T00:38:12.411Z,99777.78
2022-10-03T00:41:26.189Z,99793.31
2022-10-03T00:44:30.537Z,99788.47
2022-10-03T00:47:47.186Z,99787.38
2022-10-03T00:51:10.006Z,99802.03
2022-10-03T00:54:11.574Z,99802.66
2022-10-03T00:57:14.335Z,99797.34
2022-10-03T01:00:28.980Z,99802.16
2022-10-03T01:03:39.748Z,99795.75
2022-10-03T01:06:44.346Z,99805.00
2022-10-03T01:09:54.814Z,99798.97
2022-10-03T01:13:22.158Z,99801.88
2022-10-03T01:16:37.978Z,99810.41
2022-10-03T01:19:56.166Z,99810.38
2022-10-03T01:23:00.711Z,99810.13
2022-10-03T01:26:13.013Z,99812.47
2022-10-03T01:29:53.407Z,99802.72
2022-10-03T01:32:54.979Z,99795.22
2022-10-03T01:36:03.125Z,99803.22
2022-10-03T01:39:13.769Z,99806.97
2022-10-03T01:42:20.669Z,99813.47
2022-10-03T01:45:26.236Z,99807.34
2022-10-03T01:48:44.009Z,99809.53
2022-10-03T01:51:45.529Z,99806.59
2022-10-03T01:54:56.006Z,99801.28
2022-10-03T01:58:01.255Z,99809.16
2022-10-03T02:01:12.562Z,99799.25
2022-10-03T02:04:23.109Z,99812.00
2022-10-03T02:07:46.032Z,99812.50
2022-10-03T02:11:08.334Z,99813.06
2022-10-03T02:14:15.973Z,99809.69
2022-10-03T02:17:35.719Z,99805.56
2022-10-03T02:20:45.926Z,99815.75
2022-10-03T02:23:47.969Z,99811.34
2022-10-03T02:26:58.859Z,99810.63
2022-10-03T02:30:00.424Z,99817.81
2022-10-03T02:33:08.109Z,99830.06
2022-10-03T02:36:22.168Z,99829.81
2022-10-03T02:39:23.688Z,99833.28
2022-10-03T02:42:37.251Z,99841.41
2022-10-03T02:45:56.923Z,99837.63
2022-10-03T02:49:10.522Z,99841.81
2022-10-03T02:52:23.903Z,99838.88
2022-10-03T02:55:37.571Z,99830.97
2022-10-03T02:58:57.749Z,99827.66
2022-10-03T03:02:17.492Z,99825.25
2022-10-03T03:05:22.249Z,99828.25
2022-10-03T03:08:43.229Z,99827.84
2022-10-03T03:11:50.912Z,99829.03
2022-10-03T03:15:11.314Z,99817.28
2022-10-03T03:18:22.464Z,99815.66
2022-10-03T03:21:27.405Z,99811.31
2022-10-03T03:24:31.973Z,99808.09
2022-10-03T03:27:36.630Z,99807.03
2022-10-03T03:30:59.749Z,99801.78
2022-10-03T03:34:21.685Z,99803.72
2022-10-03T03:37:32.250Z,99793.72
2022-10-03T03:40:52.302Z,99795.72
2022-10-03T03:44:06.548Z,99798.25
2022-10-03T03:47:28.170Z,99806.81
2022-10-03T03:50:42.403Z,99805.97
2022-10-03T03:54:06.786Z,99803.91
2022-10-03T03:57:21.900Z,99806.06
2022-10-03T04:00:39.603Z,99799.69
2022-10-03T04:03:44.790Z,99802.09
2022-10-03T04:06:56.482Z,99795.91
2022-10-03T04:10:16.727Z,99805.59
2022-10-03T04:13:30.454Z,99798.94
2022-10-03T04:16:50.575Z,99809.81
2022-10-03T04:19:55.293Z,99806.34
2022-10-03T04:23:13.687Z,99807.66
2022-10-03T04:26:20.030Z,99799.34
2022-10-03T04:29:56.538Z,99804.63
2022-10-03T04:33:16.842Z,99809.19
2022-10-03T04:36:24.228Z,99814.56
2022-10-03T04:39:48.853Z,99816.66
2022-10-03T04:42:50.532Z,99815.38
2022-10-03T04:45:52.133Z,99814.16
2022-10-03T04:48:58.798Z,99817.03
2022-10-03T04:52:19.281Z,99814.56
2022-10-03T04:55:26.817Z,99808.78
2022-10-03T04:58:39.582Z,99810.06
2022-10-03T05:01:41.427Z,99814.78
2022-10-03T05:04:55.882Z,99806.44
2022-10-03T05:08:13.052Z,99794.69
2022-10-03T05:11:18.973Z,99798.25
2022-10-03T05:14:40.882Z,99803.06
2022-10-03T05:18:00.601Z,99812.22
2022-10-03T05:21:20.284Z,99797.78
2022-10-03T05:24:24.797Z,99806.88
2022-10-03T05:27:26.276Z,99795.13
2022-10-03T05:30:34.914Z,99801.41
2022-10-03T05:33:51.302Z,99797.88
2022-10-03T05:37:04.870Z,99797.56
2022-10-03T05:40:17.346Z,99801.03
2022-10-03T05:43:22.933Z,99788.63
2022-10-03T05:46:42.113Z,99804.38
2022-10-03T05:49:54.117Z,99800.22
2022-10-03T05:52:55.618Z,99798.47
2022-10-03T05:56:15.710Z,99798.25
2022-10-03T05:59:52.810Z,99797.41
2022-10-03T06:02:55.786Z,99807.41
2022-10-03T06:06:01.564Z,99802.06
2022-10-03T06:09:21.876Z,99798.34
2022-10-03T06:12:42.735Z,99793.69
2022-10-03T06:15:49.068Z,99789.03
2022-10-03T06:18:50.658Z,99787.72
2022-10-03T06:22:10.683Z,99783.75
2022-10-03T06:25:29.886Z,99785.97
2022-10-03T06:28:34.852Z,99769.47
2022-10-03T06:31:54.830Z,99781.25
2022-10-03T06:35:15.782Z,99782.06
2022-10-03T06:38:20.300Z,99784.34
2022-10-03T06:41:30.665Z,99792.41
2022-10-03T06:44:55.150Z,99783.38
2022-10-03T06:47:56.677Z,99786.34
2022-10-03T06:51:33.885Z,99773.00
2022-10-03T06:54:38.293Z,99776.97
2022-10-03T06:58:06.066Z,99781.56
2022-10-03T07:01:07.638Z,99775.25
2022-10-03T07:04:15.423Z,99776.09
2022-10-03T07:07:25.874Z,99777.44
2022-10-03T07:10:35.802Z,99775.31
2022-10-03T07:13:56.557Z,99779.84
2022-10-03T07:17:07.158Z,99785.75
2022-10-03T07:20:11.525Z,99783.94
2022-10-03T07:23:31.651Z,99776.97
2022-10-03T07:26:51.785Z,99766.78
2022-10-03T07:29:53.324Z,99784.66
2022-10-03T07:33:13.756Z,99778.50
2022-10-03T07:36:34.167Z,99774.47
2022-10-03T07:39:54.586Z,99775.25
2022-10-03T07:43:00.774Z,99779.47
2022-10-03T07:46:05.385Z,99781.09
2022-10-03T07:49:18.775Z,99779.00
2022-10-03T07:52:42.945Z,99785.41
2022-10-03T07:56:07.354Z,99790.50
2022-10-03T07:59:13.909Z,99790.84
2022-10-03T08:02:22.975Z,99787.63
2022-10-03T08:05:44.850Z,99789.25
2022-10-03T08:09:05.278Z,99786.13
2022-10-03T08:12:25.389Z,99791.50
2022-10-03T08:15:28.005Z,99793.16
2022-10-03T08:18:41.970Z,99787.31
2022-10-03T08:22:03.718Z,99792.16
2022-10-03T08:25:14.702Z,99796.13
2022-10-03T08:28:16.295Z,99788.91
2022-10-03T08:31:28.090Z,99776.97
2022-10-03T08:34:37.614Z,99772.41
2022-10-03T08:37:58.006Z,99777.25
2022-10-03T08:40:59.550Z,99777.56
2022-10-03T08:44:07.069Z,99775.41
2022-10-03T08:47:25.239Z,99770.38
2022-10-03T08:50:38.764Z,99777.88
2022-10-03T08:54:00.535Z,99770.16
2022-10-03T08:57:25.371Z,99761.63
2022-10-03T09:00:45.494Z,99768.84
2022-10-03T09:04:06.057Z,99773.63
2022-10-03T09:07:26.975Z,99773.88
2022-10-03T09:10:47.681Z,99779.75
2022-10-03T09:13:58.278Z,99768.00
2022-10-03T09:17:00.143Z,99771.75
2022-10-03T09:20:02.304Z,99764.81
2022-10-03T09:23:22.366Z,99753.38
2022-10-03T09:26:35.922Z,99749.91
2022-10-03T09:29:43.291Z,99749.63
2022-10-03T09:32:59.965Z,99746.97
2022-10-03T09:36:04.557Z,99740.25
2022-10-03T09:39:21.418Z,99745.88
2022-10-03T09:42:26.018Z,99760.03
2022-10-03T09:45:27.584Z,99747.75
2022-10-03T09:48:32.779Z,99751.75
2022-10-03T09:51:34.601Z,99760.84
2022-10-03T09:54:43.875Z,99749.09
2022-10-03T09:58:04.273Z,99744.28
2022-10-03T10:01:21.051Z,99753.38
2022-10-03T10:04:54.821Z,99743.50
2022-10-03T10:07:57.298Z,99730.97
2022-10-03T10:11:04.679Z,99734.69
2022-10-03T10:14:29.874Z,99726.66
2022-10-03T10:17:49.511Z,99719.19
2022-10-03T10:21:09.262Z,99708.50
2022-10-03T10:24:29.661Z,99705.31
2022-10-03T10:27:49.839Z,99695.94
2022-10-03T10:31:04.916Z,99685.50
2022-10-03T10:34:25.329Z,99671.06
2022-10-03T10:37:36.180Z,99678.25
2022-10-03T10:40:59.916Z,99673.44
2022-10-03T10:44:02.281Z,99676.09
2022-10-03T10:47:12.659Z,99667.25
2022-10-03T10:50:32.333Z,99688.88
2022-10-03T10:53:52.449Z,99667.19
2022-10-03T10:57:04.935Z,99668.78
2022-10-03T11:00:20.130Z,99647.91
2022-10-03T11:03:23.697Z,99642.88
2022-10-03T11:06:28.427Z,99650.56
2022-10-03T11:09:44.580Z,99654.78
2022-10-03T11:12:56.459Z,99658.50
2022-10-03T11:16:13.324Z,99637.38
2022-10-03T11:19:21.115Z,99624.28
2022-10-03T11:22:25.863Z,99625.34
2022-10-03T11:25:30.257Z,99626.63
2022-10-03T11:28:50.537Z,99635.81
2022-10-03T11:32:08.407Z,99633.03
2022-10-03T11:35:16.022Z,99624.91
2022-10-03T11:38:21.439Z,99610.22
2022-10-03T11:41:41.719Z,99604.47
2022-10-03T11:44:46.396Z,99594.84
2022-10-03T11:47:51.223Z,99592.53
2022-10-03T11:51:16.103Z,99600.50
2022-10-03T11:54:30.468Z,99593.69
2022-10-03T11:57:37.242Z,99584.53
2022-10-03T12:00:39.422Z,99576.19
2022-10-03T12:03:44.673Z,99577.00
2022-10-03T12:07:23.414Z,99577.22
2022-10-03T12:10:34.462Z,99559.81
2022-10-03T12:13:43.219Z,99563.13
2022-10-03T12:17:04.102Z,99563.81
2022-10-03T12:20:10.995Z,99541.56
2022-10-03T12:23:32.882Z,99551.25
2022-10-03T12:26:37.634Z,99547.50
2022-10-03T12:29:40.559Z,99533.63
2022-10-03T12:32:49.678Z,99536.63
2022-10-03T12:35:53.464Z,99534.75
2022-10-03T12:38:57.985Z,99537.00
2022-10-03T12:42:19.762Z,99514.59
2022-10-03T12:45:24.235Z,99515.47
2022-10-03T12:48:46.746Z,99517.41
2022-10-03T12:51:48.278Z,99498.66
2022-10-03T12:55:12.389Z,99501.34
2022-10-03T12:58:23.152Z,99517.13
2022-10-03T13:01:37.434Z,99498.91
2022-10-03T13:04:47.649Z,99506.59
2022-10-03T13:07:56.776Z,99491.28
2022-10-03T13:11:18.605Z,99503.13
2022-10-03T13:14:39.275Z,99498.81
2022-10-03T13:17:49.462Z,99502.34
2022-10-03T13:21:01.194Z,99484.78
2022-10-03T13:24:05.549Z,99486.16
2022-10-03T13:27:17.061Z,99486.78
2022-10-03T13:30:20.498Z,99485.75
2022-10-03T13:33:23.484Z,99470.50
2022-10-03T13:36:26.556Z,99479.97
2022-10-03T13:39:28.346Z,99477.13
2022-10-03T13:42:45.323Z,99472.81
2022-10-03T13:45:47.719Z,99464.28
2022-10-03T13:48:53.920Z,99467.47
2022-10-03T13:52:02.985Z,99461.25
2022-10-03T13:55:10.688Z,99466.63
2022-10-03T13:58:12.190Z,99453.47
2022-10-03T14:01:46.341Z,99445.44
2022-10-03T14:05:07.487Z,99437.13
2022-10-03T14:08:28.604Z,99428.00
2022-10-03T14:11:45.305Z,99417.81
2022-10-03T14:14:56.687Z,99421.75
2022-10-03T14:18:01.120Z,99417.19
2022-10-03T14:21:16.515Z,99405.41
2022-10-03T14:24:21.157Z,99404.31
2022-10-03T14:27:28.621Z,99388.25
2022-10-03T14:30:35.226Z,99387.78
2022-10-03T14:33:36.702Z,99392.28
2022-10-03T14:36:47.054Z,99403.78
2022-10-03T14:39:58.787Z,99396.78
2022-10-03T14:43:19.377Z,99388.25
2022-10-03T14:46:21.631Z,99397.88
2022-10-03T14:49:52.311Z,99403.78
2022-10-03T14:53:02.452Z,99374.63
2022-10-03T14:56:06.561Z,99374.41
2022-10-03T14:59:12.353Z,99374.09
2022-10-03T15:02:23.662Z,99367.91
2022-10-03T15:05:33.173Z,99369.88
2022-10-03T15:08:38.388Z,99357.00
2022-10-03T15:11:48.070Z,99354.31
2022-10-03T15:15:09.898Z,99346.28
2022-10-03T15:18:21.529Z,99334.53
2022-10-03T15:21:23.367Z,99323.34
2022-10-03T15:24:25.862Z,99316.22
2022-10-03T15:27:27.499Z,99311.22
2022-10-03T15:30:33.918Z,99309.13
2022-10-03T15:33:35.722Z,99316.13
2022-10-03T15:36:38.617Z,99308.41
2022-10-03T15:39:45.325Z,99301.38
2022-10-03T15:42:51.490Z,99299.28
2022-10-03T15:45:56.577Z,99296.94
2022-10-03T15:48:58.141Z,99284.38
2022-10-03T15:52:01.226Z,99291.56
2022-10-03T15:55:12.608Z,99284.38
2022-10-03T15:58:14.216Z,99282.47
2022-10-03T16:01:20.084Z,99280.38
2022-10-03T16:04:23.992Z,99272.03
2022-10-03T16:07:28.658Z,99264.88
2022-10-03T16:10:50.580Z,99264.88
2022-10-03T16:14:11.509Z,99272.63
2022-10-03T16:17:25.517Z,99269.97
2022-10-03T16:20:42.403Z,99258.97
2022-10-03T16:23:45.866Z,99258.97
2022-10-03T16:26:52.069Z,99255.97
2022-10-03T16:30:12.069Z,99243.69
2022-10-03T16:33:16.486Z,99254.09
2022-10-03T16:36:18.542Z,99249.25
2022-10-03T16:39:24.214Z,99251.94
2022-10-03T16:42:26.446Z,99230.59
2022-10-03T16:45:28.924Z,99234.06
2022-10-03T16:48:50.180Z,99222.56
2022-10-03T16:51:56.861Z,99220.97
2022-10-03T16:55:02.967Z,99220.38
2022-10-03T16:58:10.391Z,99221.13
2022-10-03T17:01:26.868Z,99226.03
2022-10-03T17:04:42.175Z,99219.47
2022-10-03T17:07:45.213Z,99208.88
2022-10-03T17:10:47.545Z,99202.28
2022-10-03T17:13:50.992Z,99202.44
2022-10-03T17:16:55.172Z,99194.19
2022-10-03T17:20:01.652Z,99195.31
2022-10-03T17:23:09.845Z,99193.50
2022-10-03T17:26:15.365Z,99185.56
2022-10-03T17:29:18.977Z,99194.22
2022-10-03T17:32:24.645Z,99190.00
2022-10-03T17:35:26.214Z,99190.03
2022-10-03T17:38:49.051Z,99174.28
2022-10-03T17:42:02.835Z,99172.69
2022-10-03T17:45:23.982Z,99164.72
2022-10-03T17:48:36.750Z,99168.47
2022-10-03T17:51:39.453Z,99162.63
2022-10-03T17:54:41.145Z,99165.63
2022-10-03T17:57:47.885Z,99165.63
2022-10-03T18:01:13.088Z,99154.13
2022-10-03T18:04:18.572Z,99142.09
2022-10-03T18:07:21.159Z,99151.16
2022-10-03T18:10:26.662Z,99153.63
2022-10-03T18:13:38.675Z,99148.56
2022-10-03T18:17:00.596Z,99139.03
2022-10-03T18:20:14.451Z,99151.59
2022-10-03T18:23:42.976Z,99148.69
2022-10-03T18:26:43.807Z,99148.94
2022-10-03T18:30:10.693Z,99148.47
2022-10-03T18:33:14.414Z,99153.81
2022-10-03T18:36:17.533Z,99141.75
2022-10-03T18:39:20.597Z,99125.91
2022-10-03T18:42:23.911Z,99127.53
2022-10-03T18:45:27.806Z,99129.44
2022-10-03T18:48:37.825Z,99128.16
2022-10-03T18:51:43.300Z,99125.47
2022-10-03T18:54:50.991Z,99123.88
2022-10-03T18:58:00.251Z,99116.16
2022-10-03T19:01:11.132Z,99120.69
2022-10-03T19:04:16.901Z,99123.38
2022-10-03T19:07:22.450Z,99112.69
2022-10-03T19:10:50.481Z,99113.25
2022-10-03T19:14:11.795Z,99123.66
2022-10-03T19:17:16.419Z,99106.00
2022-10-03T19:20:27.858Z,99104.44
2022-10-03T19:23:32.022Z,99104.50
2022-10-03T19:26:36.099Z,99094.94
2022-10-03T19:29:41.954Z,99097.84
2022-10-03T19:32:54.517Z,99100.25
2022-10-03T19:35:58.150Z,99094.59
2022-10-03T19:38:59.766Z,99089.56
2022-10-03T19:42:21.830Z,99076.44
2022-10-03T19:45:23.490Z,99082.03
2022-10-03T19:48:25.054Z,99066.78
2022-10-03T19:51:26.977Z,99068.66
2022-10-03T19:54:30.826Z,99066.00
2022-10-03T19:57:37.960Z,99069.19
2022-10-03T20:00:39.608Z,99057.41
2022-10-03T20:03:42.777Z,99045.13
2022-10-03T20:06:48.425Z,99043.50
2022-10-03T20:09:56.973Z,99040.03
2022-10-03T20:13:03.605Z,99035.28
2022-10-03T20:16:05.168Z,99030.09
2022-10-03T20:19:07.601Z,99015.63
2022-10-03T20:22:11.389Z,99007.88
2022-10-03T20:25:30.629Z,99025.81
2022-10-03T20:28:38.449Z,99021.44
2022-10-03T20:31:40.247Z,99035.88
2022-10-03T20:34:43.014Z,99030.47
2022-10-03T20:37:46.450Z,99022.66
2022-10-03T20:41:09.673Z,99012.19
2022-10-03T20:44:11.150Z,99010.22
2022-10-03T20:47:48.034Z,99012.38
2022-10-03T20:50:49.566Z,99008.41
2022-10-03T20:53:53.386Z,99009.00
2022-10-03T20:57:14.026Z,98999.16
2022-10-03T21:00:15.619Z,98988.25
2022-10-03T21:03:31.563Z,98992.81
2022-10-03T21:06:45.841Z,98992.63
2022-10-03T21:09:58.586Z,98987.88
2022-10-03T21:13:01.162Z,98987.06
2022-10-03T21:16:03.717Z,98975.28
2022-10-03T21:19:06.188Z,98975.66
2022-10-03T21:22:07.754Z,98962.78
2022-10-03T21:25:16.102Z,98957.97
2022-10-03T21:28:25.569Z,98957.44
2022-10-03T21:31:32.442Z,98950.81
2022-10-03T21:34:33.997Z,98953.63
2022-10-03T21:37:35.606Z,98938.06
2022-10-03T21:40:48.073Z,98944.81
2022-10-03T21:43:52.702Z,98939.22
2022-10-03T21:46:58.874Z,98929.13
2022-10-03T21:50:01.662Z,98922.41
2022-10-03T21:53:07.432Z,98933.66
2022-10-03T21:56:09.397Z,98933.94
2022-10-03T21:59:13.896Z,98926.34
2022-10-03T22:02:15.511Z,98928.06
2022-10-03T22:05:32.379Z,98914.94
2022-10-03T22:08:35.485Z,98900.50
2022-10-03T22:11:40.508Z,98900.19
2022-10-03T22:15:04.796Z,98897.81
2022-10-03T22:18:11.745Z,98893.84
2022-10-03T22:21:19.728Z,98887.47
2022-10-03T22:24:29.579Z,98895.72
2022-10-03T22:27:40.141Z,98907.69
2022-10-03T22:30:44.678Z,98893.53
2022-10-03T22:33:55.470Z,98887.47
2022-10-03T22:36:58.988Z,98893.59
2022-10-03T22:40:01.061Z,98892.59
2022-10-03T22:43:04.436Z,98885.34
2022-10-03T22:46:06.209Z,98868.63
2022-10-03T22:49:07.754Z,98859.06
2022-10-03T22:52:11.341Z,98855.91
2022-10-03T22:55:13.237Z,98849.25
2022-10-03T22:58:14.773Z,98852.59
2022-10-03T23:01:16.324Z,98840.63
2022-10-03T23:04:20.153Z,98844.38
2022-10-03T23:07:28.316Z,98851.22
2022-10-03T23:10:33.112Z,98843.34
2022-10-03T23:13:44.281Z,98839.50
2022-10-03T23:17:18.409Z,98823.34
2022-10-03T23:20:35.047Z,98814.44
2022-10-03T23:23:45.561Z,98802.66
2022-10-03T23:26:54.191Z,98798.88
2022-10-03T23:30:30.999Z,98791.97
2022-10-03T23:33:32.616Z,98790.06
2022-10-03T23:36:34.214Z,98784.97
2022-10-03T23:39:35.877Z,98795.97
2022-10-03T23:42:42.023Z,98777.16
2022-10-03T23:45:43.559Z,98787.06
2022-10-03T23:48:46.842Z,98766.25
2022-10-03T23:51:48.433Z,98764.75
2022-10-03T23:54:50.058Z,98758.63
2022-10-03T23:57:51.629Z,98749.91
